• Join FlightAware (Why Join?)
  • Login
  • US Flag 
12:03AM EDT


 

Airport Tracker/Info


-or-


 

Live Flight TrackerFlight Track Log ✈ AWI3680 ✈ 04-Jul-2013 ✈ KPHL - KALB

Flight Track Log - Related Links

Times and Time Zones

All times are in EDT time to prevent confusion due to time zone crossing. See the AWI3680 flight status page for this flight to view local times or setup timezone preferences in your user account.

Time Position Orientation Groundspeed Altitude Reporting Facility
EDT Latitude Longitude Course Direction KTS MPH feet Rate Location/Type
07:03PM 39.8667 -75.2833 212° Southwest 169 194 600  Level Philadelphia TRACON
07:05PM 39.7833 -75.3500 212° Southwest 216 249 3,800 1,860 Climbing Philadelphia TRACON
07:06PM 39.7167 -75.3500 180° South 268 308 5,500 1,860 Climbing Philadelphia TRACON
07:07PM 39.7000 -75.2667 105° East 302 348 7,400 1,620 Climbing Philadelphia TRACON
07:09PM 39.7389 -75.0228 78° East 324 373 10,900 1,500 Climbing New York Center
07:10PM 39.7622 -74.8892 77° East 331 381 12,500 1,740 Climbing New York Center
07:11PM 39.7856 -74.7636 76° East 341 392 14,400 1,620 Climbing New York Center
07:12PM 39.8450 -74.6642 52° Northeast 341 392 15,800 1,380 Climbing New York Center
07:13PM 39.9247 -74.5875 36° Northeast 336 387 17,200 1,140 Climbing New York Center
07:14PM 40.0086 -74.5081 36° Northeast 342 394 18,100 960 Climbing New York Center
07:15PM 40.0964 -74.4314 34° Northeast 368 423 19,200 960 Climbing New York Center
07:16PM 40.1883 -74.3575 32° Northeast 381 438 20,100 960 Climbing New York Center
07:17PM 40.2822 -74.2833 31° Northeast 387 445 21,200 900 Climbing New York Center
07:18PM 40.3764 -74.2036 33° Northeast 393 452 21,900 660 Climbing New York Center
07:19PM 40.4722 -74.1267 31° Northeast 398 458 22,600 720 Climbing New York Center
07:21PM 40.6369 -73.9961 31° Northeast 401 461 23,900 480 Climbing Boston Center
07:22PM 40.7381 -73.9108 33° Northeast 411 473 24,000  Climbing Boston Center
07:23PM 40.8353 -73.8117 38° Northeast 423 487 24,000 -240 Level Boston Center
07:24PM 40.9322 -73.7175 36° Northeast 428 493 23,600 -540 Descending Boston Center
07:25PM 41.0533 -73.6981 North 419 482 23,000 -480 Descending Boston Center
07:26PM 41.2017 -73.6761 North 431 496 22,600 -840 Descending Boston Center
07:27PM 41.3247 -73.6564 North 436 502 21,200 -1,920 Descending Boston Center
07:28PM 41.4433 -73.6669 356° North 441 507 18,800 -2,460 Descending Boston Center
07:29PM 41.5558 -73.6775 356° North 412 474 16,300 -2,400 Descending Boston Center
07:30PM 41.6578 -73.6906 355° North 391 450 14,000 -2,520 Descending Boston Center
07:31PM 41.7597 -73.6981 357° North 364 419 11,300 -1,500 Descending Boston Center
07:32PM 41.8472 -73.7081 355° North 359 413 11,100 -120 Descending Boston Center
07:33PM 41.9533 -73.7186 356° North 348 400 11,100  Level Boston Center
07:34PM 42.0389 -73.7286 355° North 348 400 11,100 -60 Level Boston Center
07:35PM 42.1469 -73.7394 356° North 348 400 11,000 -180 Descending Boston Center
07:36PM 42.2283 -73.7328 North 336 387 10,800 -720 Descending Boston Center
07:37PM 42.3244 -73.7178 North 318 366 9,600 -1,560 Descending Boston Center
07:38PM 42.3914 -73.6853 20° North 290 334 7,700 -1,800 Descending Boston Center
07:39PM 42.4792 -73.6675 North 280 322 6,100 -1,500 Descending Boston Center
07:40PM 42.5439 -73.6658 North 268 308 4,700 -1,080 Descending Boston Center
07:41PM 42.6231 -73.6647 North 262 302 4,000 -900 Descending Boston Center
07:42PM 42.6836 -73.6631 North 251 289 3,000 -540 Descending Boston Center
07:43PM 42.7461 -73.6614 North 218 251 3,000  Level Boston Center